Time;durP1;ratioP1;P1;durP2;ratioP2;P2;SDS_P1;SDS_P2;PMS_P1;PMS_P2;Temp;Humidity;BMP_temperature;BMP_pressure;BME280_temperature;BME280_humidity;BME280_pressure;Samples;Min_cycle;Max_cycle;Signal;HPM_P1;HPM_P2
2022/12/11 00:01:14;;;;;;;110.43;36.03;;;;;;;5.36;60.77;101080.78;4918683;29;20518;-67
2022/12/11 00:03:41;;;;;;;85.75;30.85;;;;;;;5.35;60.72;101075.53;4918625;29;20044;-67
2022/12/11 00:06:11;;;;;;;81.03;32.20;;;;;;;5.34;60.80;101077.31;4918643;29;20040;-67
2022/12/11 00:08:38;;;;;;;127.35;34.95;;;;;;;5.37;60.74;101076.31;4918128;29;20099;-67
2022/12/11 00:11:07;;;;;;;95.28;32.63;;;;;;;5.36;60.72;101070.13;4918440;29;20406;-67
2022/12/11 00:13:34;;;;;;;102.72;32.65;;;;;;;5.34;60.86;101068.47;4918385;29;20048;-67
2022/12/11 00:16:01;;;;;;;94.10;32.08;;;;;;;5.35;60.87;101064.88;4918554;29;20055;-67
2022/12/11 00:18:27;;;;;;;129.80;36.65;;;;;;;5.35;60.80;101063.06;4918658;29;20075;-67
2022/12/11 00:20:54;;;;;;;168.50;38.25;;;;;;;5.33;60.76;101064.94;4918559;29;20047;-67
2022/12/11 00:23:20;;;;;;;179.02;45.28;;;;;;;5.30;60.84;101065.09;4918131;29;20054;-68
2022/12/11 00:25:48;;;;;;;181.30;41.25;;;;;;;5.26;60.96;101055.50;4918353;29;20055;-67
2022/12/11 00:28:19;;;;;;;79.10;31.17;;;;;;;5.20;60.90;101058.44;4918467;29;20040;-67
2022/12/11 00:30:46;;;;;;;195.88;44.13;;;;;;;5.20;60.88;101068.22;4918529;29;20099;-67
2022/12/11 00:33:13;;;;;;;83.15;30.48;;;;;;;5.20;60.93;101074.44;4918008;29;20074;-67
2022/12/11 00:35:43;;;;;;;132.13;36.28;;;;;;;5.24;61.12;101070.69;4918181;29;20044;-67
2022/12/11 00:38:14;;;;;;;74.50;30.42;;;;;;;5.28;61.15;101069.63;4917978;29;20048;-68
2022/12/11 00:40:42;;;;;;;77.18;30.58;;;;;;;5.34;61.20;101081.78;4918386;29;20103;-67
2022/12/11 00:43:09;;;;;;;126.75;36.70;;;;;;;5.38;61.12;101078.91;4917910;29;20456;-68
2022/12/11 00:45:36;;;;;;;83.28;31.20;;;;;;;5.40;61.08;101066.38;4918016;29;20052;-67
2022/12/11 00:48:04;;;;;;;85.80;30.73;;;;;;;5.42;61.13;101071.66;4917898;29;20461;-66
2022/12/11 00:50:30;;;;;;;80.18;30.92;;;;;;;5.43;61.16;101066.25;4917767;29;20044;-66
2022/12/11 00:52:57;;;;;;;102.80;33.08;;;;;;;5.48;61.12;101065.16;4917648;29;20055;-66
2022/12/11 00:55:24;;;;;;;135.30;38.03;;;;;;;5.50;61.30;101063.31;4917910;29;20555;-67
2022/12/11 00:57:51;;;;;;;102.53;35.42;;;;;;;5.51;61.16;101063.22;4917901;29;20055;-67
2022/12/11 01:00:18;;;;;;;150.18;37.10;;;;;;;5.51;60.85;101067.69;4900773;29;20103;-67
2022/12/11 01:02:44;;;;;;;123.72;38.03;;;;;;;5.49;61.05;101066.91;4917546;29;20048;-67
2022/12/11 01:05:11;;;;;;;104.80;35.95;;;;;;;5.47;60.91;101058.13;4917791;29;20072;-67
2022/12/11 01:07:38;;;;;;;85.13;34.05;;;;;;;5.44;61.02;101061.78;4918227;29;20498;-67
2022/12/11 01:10:23;;;;;;;86.88;32.45;;;;;;;5.42;61.02;101050.34;4900739;29;20044;-68
2022/12/11 01:13:05;;;;;;;177.02;41.70;;;;;;;5.41;61.13;101056.59;4917457;29;20559;-67
2022/12/11 01:15:37;;;;;;;88.35;33.40;;;;;;;5.38;61.04;101052.28;4918157;29;20048;-67
2022/12/11 01:18:07;;;;;;;85.65;31.30;;;;;;;5.37;61.11;101047.03;4917361;29;20133;-68
2022/12/11 01:20:37;;;;;;;85.65;32.55;;;;;;;5.39;61.11;101048.69;4917583;29;20050;-68
2022/12/11 01:23:04;;;;;;;78.90;31.70;;;;;;;5.41;61.12;101051.28;4917524;29;20052;-67
2022/12/11 01:25:32;;;;;;;82.65;31.98;;;;;;;5.41;61.07;101052.13;4917499;29;20036;-67
2022/12/11 01:27:58;;;;;;;83.78;33.65;;;;;;;5.43;61.20;101052.94;4917333;29;20091;-67
2022/12/11 01:30:25;;;;;;;81.70;31.23;;;;;;;5.45;61.19;101055.53;4924732;29;20052;-68
2022/12/11 01:32:52;;;;;;;130.75;38.80;;;;;;;5.48;61.21;101058.03;4917432;29;20040;-67
2022/12/11 01:35:19;;;;;;;89.53;34.03;;;;;;;5.48;61.35;101058.03;4917379;29;20055;-68
2022/12/11 01:37:45;;;;;;;84.13;34.92;;;;;;;5.49;61.23;101061.56;4917350;29;20372;-68
2022/12/11 01:40:14;;;;;;;82.95;33.30;;;;;;;5.48;61.11;101058.03;4917161;29;20088;-66
2022/12/11 01:42:41;;;;;;;141.63;42.38;;;;;;;5.49;61.23;101054.44;4916907;29;20048;-67
2022/12/11 01:45:28;;;;;;;89.63;32.92;;;;;;;5.48;61.24;101057.19;4917113;29;20048;-67
2022/12/11 01:48:06;;;;;;;78.85;32.35;;;;;;;5.49;61.24;101056.25;4917042;29;20527;-68
2022/12/11 01:50:38;;;;;;;85.45;33.92;;;;;;;5.50;61.26;101042.84;4917140;29;20056;-67
2022/12/11 01:53:07;;;;;;;96.53;37.42;;;;;;;5.51;61.26;101044.59;4915853;29;20410;-67
2022/12/11 01:55:36;;;;;;;106.63;37.50;;;;;;;5.50;61.17;101049.97;4916979;29;20044;-68
2022/12/11 01:58:04;;;;;;;89.55;35.85;;;;;;;5.48;61.26;101039.41;4917092;29;20085;-67
2022/12/11 02:00:30;;;;;;;84.10;34.88;;;;;;;5.47;61.07;101051.00;4884656;29;20040;-67
2022/12/11 02:02:57;;;;;;;80.93;32.95;;;;;;;5.46;61.13;101040.41;4916732;29;20056;-66
2022/12/11 02:05:23;;;;;;;81.95;34.90;;;;;;;5.48;61.30;101052.72;4916906;29;20052;-67
2022/12/11 02:07:56;;;;;;;89.43;33.33;;;;;;;5.50;61.35;101045.53;4917415;29;20506;-66
2022/12/11 02:10:34;;;;;;;102.90;36.45;;;;;;;5.53;61.22;101036.53;4916800;29;20109;-67
2022/12/11 02:13:10;;;;;;;91.80;33.45;;;;;;;5.55;61.31;101042.63;4916839;29;20056;-67
2022/12/11 02:15:59;;;;;;;89.00;35.63;;;;;;;5.54;61.22;101040.91;4916954;29;20044;-66
2022/12/11 02:18:43;;;;;;;80.88;33.72;;;;;;;5.52;61.19;101038.31;4917504;29;20506;-66
2022/12/11 02:21:25;;;;;;;74.32;30.27;;;;;;;5.50;61.28;101032.19;4916648;29;20511;-67
2022/12/11 02:24:09;;;;;;;83.75;33.38;;;;;;;5.49;61.28;101032.28;4916562;29;20052;-66
2022/12/11 02:27:12;;;;;;;78.18;31.48;;;;;;;5.49;61.27;101022.47;4916764;29;20483;-67
2022/12/11 02:29:49;;;;;;;83.32;32.45;;;;;;;5.51;61.25;101023.28;4889895;29;20067;-67
2022/12/11 02:32:24;;;;;;;95.45;35.30;;;;;;;5.52;61.31;101026.81;4917537;29;20052;-67
2022/12/11 02:35:01;;;;;;;79.35;31.65;;;;;;;5.52;61.33;101030.31;4920373;29;20044;-66
2022/12/11 02:37:30;;;;;;;85.75;34.38;;;;;;;5.52;61.26;101026.81;4920225;29;20040;-66
2022/12/11 02:39:57;;;;;;;86.97;34.35;;;;;;;5.53;61.32;101029.38;4920244;29;20060;-66
2022/12/11 02:42:29;;;;;;;109.28;39.08;;;;;;;5.54;61.38;101032.91;4919943;29;20546;-66
2022/12/11 02:44:59;;;;;;;98.40;35.65;;;;;;;5.53;61.16;101032.06;4920405;29;20407;-66
2022/12/11 02:47:29;;;;;;;83.40;35.55;;;;;;;5.49;61.21;101033.13;4919920;29;20044;-66
2022/12/11 02:50:00;;;;;;;82.80;34.95;;;;;;;5.47;61.31;101021.69;4920047;29;20433;-66
2022/12/11 02:52:29;;;;;;;78.88;32.67;;;;;;;5.50;61.38;101028.66;4919988;29;20506;-67
2022/12/11 02:54:59;;;;;;;87.38;33.38;;;;;;;5.51;61.36;101025.94;4902916;29;20396;-67
2022/12/11 02:57:38;;;;;;;80.13;32.63;;;;;;;5.54;61.39;101019.59;4919975;29;20450;-67
2022/12/11 03:00:05;;;;;;;81.45;34.30;;;;;;;5.57;61.42;101017.66;4920083;29;20056;-67
2022/12/11 03:02:32;;;;;;;75.97;32.53;;;;;;;5.58;61.41;101013.19;4919637;29;20115;-67
2022/12/11 03:04:59;;;;;;;73.70;32.05;;;;;;;5.58;61.49;101014.06;4919838;29;20088;-66
2022/12/11 03:07:30;;;;;;;76.57;33.15;;;;;;;5.59;61.25;101006.94;4919949;29;20052;-66
2022/12/11 03:09:57;;;;;;;70.95;32.30;;;;;;;5.59;61.38;101007.78;4919807;29;20055;-66
2022/12/11 03:12:30;;;;;;;73.40;29.75;;;;;;;5.60;61.43;101000.66;4919361;29;20044;-66
2022/12/11 03:14:59;;;;;;;63.65;29.90;;;;;;;5.62;61.56;100994.31;4902704;29;20055;-67
2022/12/11 03:17:31;;;;;;;68.53;30.55;;;;;;;5.65;61.47;101007.50;4919635;29;20048;-66
2022/12/11 03:20:00;;;;;;;71.18;31.25;;;;;;;5.67;61.39;100997.63;4919878;29;20052;-66
2022/12/11 03:22:37;;;;;;;64.28;30.60;;;;;;;5.66;61.32;101001.22;4919309;29;20225;-66
2022/12/11 03:25:16;;;;;;;63.65;29.33;;;;;;;5.67;61.34;100996.75;4919668;29;20100;-67
2022/12/11 03:28:04;;;;;;;64.65;29.23;;;;;;;5.70;61.45;100991.28;4919748;29;20399;-67
2022/12/11 03:30:35;;;;;;;65.65;28.83;;;;;;;5.71;61.39;100996.53;4919149;29;20487;-66
2022/12/11 03:33:10;;;;;;;70.00;30.20;;;;;;;5.72;61.43;100987.59;4919147;29;20044;-66
2022/12/11 03:35:50;;;;;;;70.68;30.95;;;;;;;5.74;61.36;100984.88;4919465;29;20048;-67
2022/12/11 03:38:21;;;;;;;67.28;29.38;;;;;;;5.73;61.36;100988.47;4919119;29;20080;-67
2022/12/11 03:40:53;;;;;;;63.17;28.83;;;;;;;5.71;61.38;100985.88;4919256;29;20036;-66
2022/12/11 03:43:21;;;;;;;67.63;30.77;;;;;;;5.73;61.36;100992.00;4918108;29;20130;-66
2022/12/11 03:45:50;;;;;;;73.90;31.33;;;;;;;5.74;61.24;100984.88;4918851;29;20108;-68
2022/12/11 03:48:19;;;;;;;61.78;28.00;;;;;;;5.75;61.37;100994.59;4919109;29;20123;-67
2022/12/11 03:50:47;;;;;;;71.72;30.35;;;;;;;5.75;61.27;100998.13;4918813;29;20103;-67
2022/12/11 03:53:15;;;;;;;60.13;28.92;;;;;;;5.77;61.31;100991.84;4918914;29;20107;-66
2022/12/11 03:55:42;;;;;;;63.15;28.48;;;;;;;5.78;61.34;100993.56;4918916;29;20127;-67
2022/12/11 03:58:09;;;;;;;63.45;29.50;;;;;;;5.80;61.35;100995.22;4918990;29;20044;-66
2022/12/11 04:00:35;;;;;;;64.43;29.45;;;;;;;5.80;61.29;101000.56;4918875;29;20503;-66
2022/12/11 04:03:16;;;;;;;63.10;28.92;;;;;;;5.77;61.27;100992.72;4918585;29;20427;-68
2022/12/11 04:05:49;;;;;;;71.72;29.65;;;;;;;5.73;61.18;100991.13;4918782;29;20143;-66
2022/12/11 04:08:17;;;;;;;67.25;28.45;;;;;;;5.69;61.27;100987.75;4918737;29;20055;-66
2022/12/11 04:10:43;;;;;;;53.50;27.63;;;;;;;5.68;61.26;100978.03;4918437;29;20451;-66
2022/12/11 04:13:10;;;;;;;55.35;26.83;;;;;;;5.66;61.40;100979.91;4918522;29;20047;-67
2022/12/11 04:15:39;;;;;;;54.67;27.73;;;;;;;5.67;61.32;100978.97;4918458;29;20550;-67
2022/12/11 04:26:24;;;;;;;60.70;26.33;;;;;;;5.72;61.31;100976.94;4929161;29;20569;-67
2022/12/11 04:28:50;;;;;;;53.30;26.17;;;;;;;5.72;61.38;100976.09;4935313;29;20043;-66
2022/12/11 04:31:20;;;;;;;57.42;26.33;;;;;;;5.70;61.29;100973.50;4936699;29;20056;-66
2022/12/11 04:33:47;;;;;;;51.08;25.67;;;;;;;5.69;61.30;100977.09;4920136;29;20483;-66
2022/12/11 04:36:14;;;;;;;56.67;26.25;;;;;;;5.70;61.37;100976.16;4934818;29;20052;-66
2022/12/11 04:38:40;;;;;;;46.40;24.90;;;;;;;5.74;61.39;100968.88;4937191;29;20046;-66
2022/12/11 04:41:10;;;;;;;52.05;25.95;;;;;;;5.78;61.38;100973.13;4937082;29;20044;-66
2022/12/11 04:43:38;;;;;;;51.13;24.45;;;;;;;5.80;61.32;100978.38;4936857;29;20463;-67
2022/12/11 04:46:23;;;;;;;52.78;24.77;;;;;;;5.80;61.39;100981.03;4937138;29;20140;-66
2022/12/11 04:48:52;;;;;;;48.65;23.88;;;;;;;5.84;61.24;100974.63;4918565;29;20142;-67
2022/12/11 04:51:23;;;;;;;45.05;24.23;;;;;;;5.87;61.28;100985.13;4936682;29;20419;-66
2022/12/11 04:53:50;;;;;;;51.17;24.05;;;;;;;5.90;61.09;100980.53;4936545;29;20087;-66
2022/12/11 04:56:16;;;;;;;48.30;23.52;;;;;;;5.91;61.17;100987.59;4936349;29;20127;-66
2022/12/11 04:58:44;;;;;;;51.78;24.88;;;;;;;5.93;61.25;100980.38;4914908;29;20050;-67
2022/12/11 05:01:13;;;;;;;43.10;22.08;;;;;;;5.95;61.08;100975.88;4936456;29;20048;-66
2022/12/11 05:03:40;;;;;;;46.20;23.33;;;;;;;5.96;61.21;100988.25;4935575;29;20044;-66
2022/12/11 05:06:09;;;;;;;42.75;23.13;;;;;;;5.97;61.13;100981.13;4936772;29;20054;-67
2022/12/11 05:08:37;;;;;;;44.13;23.58;;;;;;;5.99;61.12;100981.91;4936733;29;20048;-67
2022/12/11 05:11:06;;;;;;;46.08;22.77;;;;;;;6.00;61.20;100981.84;4934407;29;20122;-67
2022/12/11 05:13:33;;;;;;;38.80;21.67;;;;;;;6.01;61.25;100982.69;4935605;29;20452;-66
2022/12/11 05:16:03;;;;;;;41.03;21.25;;;;;;;5.98;61.06;100988.19;4936741;29;20498;-66
2022/12/11 05:18:29;;;;;;;37.63;20.05;;;;;;;5.97;61.07;100990.00;4936537;29;20035;-66
2022/12/11 05:20:58;;;;;;;37.58;19.90;;;;;;;5.98;61.03;100986.38;4936350;29;20508;-67
2022/12/11 05:23:25;;;;;;;36.38;19.83;;;;;;;6.00;61.11;100988.97;4924582;29;20455;-66
2022/12/11 05:26:02;;;;;;;34.58;19.35;;;;;;;5.99;60.99;100981.91;4918016;29;20048;-66
2022/12/11 05:28:32;;;;;;;34.58;18.13;;;;;;;6.01;61.22;100980.03;4917631;29;20052;-66
2022/12/11 05:31:01;;;;;;;35.72;19.08;;;;;;;6.00;61.05;100970.31;4917383;29;20057;-66
2022/12/11 05:33:28;;;;;;;40.45;19.90;;;;;;;5.96;60.99;100968.75;4900054;29;20052;-66
2022/12/11 05:35:55;;;;;;;32.80;18.67;;;;;;;5.93;61.06;100958.19;4911344;29;20411;-66
2022/12/11 05:38:22;;;;;;;31.08;17.90;;;;;;;5.91;60.97;100957.41;4936320;29;20043;-66
2022/12/11 05:41:03;;;;;;;32.13;17.55;;;;;;;5.90;61.05;100953.88;4936096;29;20055;-66
2022/12/11 05:43:32;;;;;;;31.33;17.08;;;;;;;5.91;61.01;100960.06;4927779;29;20444;-67
2022/12/11 05:46:26;;;;;;;30.48;17.17;;;;;;;5.91;61.05;100955.59;4917100;29;20483;-66
2022/12/11 05:48:55;;;;;;;32.50;17.15;;;;;;;5.96;61.01;100952.75;4914378;29;20116;-67
2022/12/11 05:51:22;;;;;;;27.17;16.83;;;;;;;5.97;60.96;100950.00;4916925;29;20491;-67
2022/12/11 05:53:50;;;;;;;30.45;17.20;;;;;;;5.97;60.99;100943.81;4916286;29;20382;-67
2022/12/11 05:56:20;;;;;;;31.98;17.88;;;;;;;5.95;61.07;100945.69;4917158;29;20095;-66
2022/12/11 05:58:48;;;;;;;30.75;17.55;;;;;;;5.93;60.94;100944.88;4917152;29;20075;-67
2022/12/11 06:01:18;;;;;;;29.27;17.45;;;;;;;5.92;60.96;100952.00;4916969;29;20048;-66
2022/12/11 06:03:46;;;;;;;29.45;17.65;;;;;;;5.92;60.99;100949.34;4916743;29;20050;-67
2022/12/11 06:06:13;;;;;;;33.38;17.83;;;;;;;5.93;60.95;100951.06;4916268;29;20044;-66
2022/12/11 06:08:39;;;;;;;31.63;18.60;;;;;;;5.94;61.01;100955.44;4920319;29;20055;-66
2022/12/11 06:11:07;;;;;;;38.42;19.48;;;;;;;5.96;60.98;100958.06;4920665;29;20052;-66
2022/12/11 06:13:34;;;;;;;44.53;21.83;;;;;;;5.95;60.84;100964.34;4919720;29;20048;-66
2022/12/11 06:16:03;;;;;;;42.78;22.42;;;;;;;5.91;60.95;100963.59;4920672;29;20048;-66
2022/12/11 06:18:30;;;;;;;39.75;21.67;;;;;;;5.88;60.81;100963.72;4920735;29;20051;-66
2022/12/11 06:20:57;;;;;;;37.95;20.13;;;;;;;5.87;61.14;100962.00;4920529;29;20066;-67
2022/12/11 06:23:23;;;;;;;42.67;20.77;;;;;;;5.85;60.95;100963.00;4919660;29;20044;-66
2022/12/11 06:25:50;;;;;;;36.10;19.30;;;;;;;5.83;61.03;100960.44;4920453;29;20054;-66
2022/12/11 06:28:16;;;;;;;34.75;19.35;;;;;;;5.84;61.10;100966.63;4920565;29;20404;-66
2022/12/11 06:30:43;;;;;;;31.10;18.80;;;;;;;5.85;61.01;100966.53;4920299;29;20514;-66
2022/12/11 06:33:10;;;;;;;27.98;16.90;;;;;;;5.84;60.87;100963.97;4920199;29;20050;-67
2022/12/11 06:35:37;;;;;;;27.23;16.35;;;;;;;5.79;60.96;100966.84;4919536;29;20050;-66
2022/12/11 06:38:09;;;;;;;25.38;15.68;;;;;;;5.79;60.96;100966.84;4920395;29;20048;-66
2022/12/11 06:40:36;;;;;;;26.83;16.42;;;;;;;5.80;60.89;100965.03;4920159;29;20103;-67
2022/12/11 06:43:02;;;;;;;29.13;16.23;;;;;;;5.81;60.94;100964.09;4919210;29;20044;-66
2022/12/11 06:45:29;;;;;;;26.38;16.23;;;;;;;5.79;60.82;100956.19;4903319;29;20040;-66
2022/12/11 06:47:57;;;;;;;24.55;16.45;;;;;;;5.80;60.75;100965.91;4920041;29;20100;-66
2022/12/11 06:50:23;;;;;;;23.33;15.35;;;;;;;5.82;60.86;100960.50;4920171;29;20048;-67
2022/12/11 06:52:50;;;;;;;23.38;15.70;;;;;;;5.83;60.77;100963.09;4918970;29;20079;-66
2022/12/11 06:55:16;;;;;;;23.80;15.48;;;;;;;5.83;60.85;100957.75;4918210;29;20044;-66
2022/12/11 06:57:43;;;;;;;27.67;16.17;;;;;;;5.85;60.74;100963.00;4900951;29;20059;-66
2022/12/11 07:00:10;;;;;;;25.65;16.00;;;;;;;5.86;60.66;100967.41;4906408;29;20048;-66
2022/12/11 07:02:37;;;;;;;22.40;14.63;;;;;;;5.84;60.59;100961.28;4909760;29;20048;-66
2022/12/11 07:05:04;;;;;;;24.25;16.20;;;;;;;5.80;60.51;100968.56;4910910;29;20040;-66
2022/12/11 07:07:31;;;;;;;23.63;15.48;;;;;;;5.75;60.37;100966.13;4909357;29;20051;-66
2022/12/11 07:09:57;;;;;;;23.98;15.77;;;;;;;5.71;60.41;100972.56;4909201;29;20049;-66
2022/12/11 07:12:33;;;;;;;26.75;16.35;;;;;;;5.66;60.33;100966.59;4914922;29;20040;-66
2022/12/11 07:14:59;;;;;;;23.92;15.45;;;;;;;5.62;60.48;100962.34;4909703;29;20055;-67
2022/12/11 07:17:28;;;;;;;26.88;16.83;;;;;;;5.59;60.38;100967.81;4910256;29;20496;-65
2022/12/11 07:19:54;;;;;;;24.60;15.93;;;;;;;5.58;60.32;100973.22;4913754;29;20055;-66
2022/12/11 07:22:21;;;;;;;25.42;16.85;;;;;;;5.59;60.28;100975.81;4906950;29;20064;-67
2022/12/11 07:24:48;;;;;;;23.35;15.15;;;;;;;5.62;60.40;100970.34;4908848;29;20083;-68
2022/12/11 07:27:14;;;;;;;23.23;15.27;;;;;;;5.66;60.30;100979.91;4919490;29;20048;-67
2022/12/11 07:29:41;;;;;;;23.75;15.63;;;;;;;5.68;60.52;100979.84;4913904;29;20037;-68
2022/12/11 07:32:07;;;;;;;27.67;16.98;;;;;;;5.69;60.42;100976.22;4910352;29;20136;-67
2022/12/11 07:34:34;;;;;;;23.42;15.75;;;;;;;5.70;60.37;100983.28;4909830;29;20046;-66
2022/12/11 07:37:00;;;;;;;24.23;15.35;;;;;;;5.72;60.31;100987.59;4912578;29;20055;-66
2022/12/11 07:39:27;;;;;;;25.13;16.35;;;;;;;5.74;60.40;100991.06;4908322;29;20064;-66
2022/12/11 07:41:54;;;;;;;24.63;15.25;;;;;;;5.77;60.25;101000.69;4909664;29;20095;-66
2022/12/11 07:44:20;;;;;;;25.67;15.90;;;;;;;5.79;60.32;100998.81;4910200;29;20041;-67
2022/12/11 07:46:47;;;;;;;24.75;16.30;;;;;;;5.82;60.39;100992.47;4910099;29;20044;-67
2022/12/11 07:49:13;;;;;;;23.15;15.07;;;;;;;5.86;60.29;100994.06;4908603;29;20044;-66
2022/12/11 07:51:41;;;;;;;25.67;16.00;;;;;;;5.89;60.22;100992.13;4907856;29;20063;-66
2022/12/11 07:54:15;;;;;;;27.05;15.95;;;;;;;5.90;60.28;100995.66;4903544;29;20495;-67
2022/12/11 07:56:43;;;;;;;22.25;15.45;;;;;;;5.88;60.57;100993.03;4907531;29;20111;-67
2022/12/11 07:59:15;;;;;;;25.33;15.38;;;;;;;5.85;60.06;100987.00;4910126;29;20444;-67
2022/12/11 08:01:42;;;;;;;22.38;15.10;;;;;;;5.83;60.12;100996.88;4909755;29;20048;-67
2022/12/11 08:04:10;;;;;;;22.77;15.25;;;;;;;5.80;60.11;100995.22;4911480;29;20040;-67
2022/12/11 08:06:38;;;;;;;24.38;15.00;;;;;;;5.76;60.00;100993.66;4908564;29;20092;-67
2022/12/11 08:09:08;;;;;;;23.73;15.27;;;;;;;5.70;60.13;100986.81;4910701;29;20061;-66
2022/12/11 08:11:35;;;;;;;25.52;15.80;;;;;;;5.71;60.11;100991.22;4909629;29;20052;-67
2022/12/11 08:14:02;;;;;;;21.35;15.18;;;;;;;5.74;60.25;100995.53;4912206;29;20044;-67
2022/12/11 08:16:29;;;;;;;22.52;15.25;;;;;;;5.73;60.13;100986.66;4909984;29;20048;-67
2022/12/11 08:18:56;;;;;;;23.58;16.45;;;;;;;5.72;60.11;100987.59;4908516;29;20036;-66
2022/12/11 08:21:25;;;;;;;23.30;15.57;;;;;;;5.70;60.12;100991.28;4908004;29;20047;-66
2022/12/11 08:23:53;;;;;;;23.10;14.82;;;;;;;5.67;60.04;100986.97;4906766;29;20045;-66
2022/12/11 08:26:23;;;;;;;24.20;15.25;;;;;;;5.70;60.11;100978.81;4915107;29;20581;-67
2022/12/11 08:28:49;;;;;;;23.08;15.13;;;;;;;5.75;60.20;100983.94;4937224;29;20048;-67
2022/12/11 08:31:17;;;;;;;24.90;16.58;;;;;;;5.78;60.14;100981.09;4919817;29;20040;-66
2022/12/11 08:33:44;;;;;;;26.38;16.67;;;;;;;5.78;60.17;100978.44;4937288;29;20040;-67
2022/12/11 08:36:15;;;;;;;24.23;15.88;;;;;;;5.75;60.08;100982.13;4937240;29;20047;-65
2022/12/11 08:38:42;;;;;;;25.95;16.35;;;;;;;5.74;60.01;100985.72;4925964;29;20048;-66
2022/12/11 08:41:10;;;;;;;28.13;18.25;;;;;;;5.73;60.09;100981.34;4901739;29;20086;-67
2022/12/11 08:43:37;;;;;;;27.73;17.55;;;;;;;5.72;60.04;100982.28;4920354;29;20465;-67
2022/12/11 08:46:05;;;;;;;27.02;17.35;;;;;;;5.72;60.08;100979.59;4927469;29;20035;-63
2022/12/11 08:48:34;;;;;;;29.75;18.63;;;;;;;5.76;60.08;100983.00;4936747;29;20499;-65
2022/12/11 08:51:02;;;;;;;27.48;17.88;;;;;;;5.80;60.14;100979.22;4933495;29;20051;-66
2022/12/11 08:53:29;;;;;;;30.40;18.92;;;;;;;5.82;60.23;100984.50;4936175;29;20070;-67
2022/12/11 08:56:04;;;;;;;29.95;19.30;;;;;;;5.77;59.77;100983.84;4936747;29;20044;-67
2022/12/11 08:58:31;;;;;;;30.35;18.63;;;;;;;5.77;60.12;100981.19;4935859;29;20054;-67
2022/12/11 09:00:58;;;;;;;30.25;19.52;;;;;;;5.79;60.10;100979.31;4936695;29;20054;-66
2022/12/11 09:03:24;;;;;;;24.42;17.10;;;;;;;5.81;60.06;100972.09;4919878;29;20055;-66
2022/12/11 09:05:51;;;;;;;31.52;19.17;;;;;;;5.82;59.99;100977.34;4900734;29;20070;-66
2022/12/11 09:08:17;;;;;;;31.63;19.40;;;;;;;5.80;59.95;100973.91;4917713;29;20040;-66
2022/12/11 09:10:44;;;;;;;30.23;18.45;;;;;;;5.80;60.07;100973.03;4900553;29;20578;-66
2022/12/11 09:13:11;;;;;;;26.90;17.70;;;;;;;5.79;59.92;100976.66;4913789;29;20048;-67
2022/12/11 09:15:40;;;;;;;25.65;17.30;;;;;;;5.78;59.85;100966.91;4917590;29;20099;-67
2022/12/11 09:18:07;;;;;;;27.08;18.15;;;;;;;5.77;59.93;100966.06;4917555;29;20414;-67
2022/12/11 09:20:33;;;;;;;29.42;17.63;;;;;;;5.77;59.82;100962.53;4917432;29;20122;-67
2022/12/11 09:23:00;;;;;;;26.17;16.38;;;;;;;5.77;59.82;100963.41;4917238;29;20048;-66
2022/12/11 09:25:26;;;;;;;24.30;16.95;;;;;;;5.73;59.73;100962.69;4916609;29;20044;-66
2022/12/11 09:27:53;;;;;;;28.27;17.75;;;;;;;5.71;59.68;100959.22;4900784;29;20447;-66
2022/12/11 09:30:19;;;;;;;25.15;16.58;;;;;;;5.71;59.72;100961.03;4917658;29;20044;-67
2022/12/11 09:32:46;;;;;;;28.55;17.10;;;;;;;5.69;59.78;100961.09;4900092;29;20103;-67
2022/12/11 09:35:12;;;;;;;24.65;15.43;;;;;;;5.71;59.68;100967.22;4917272;29;20048;-67
2022/12/11 09:37:39;;;;;;;30.02;16.98;;;;;;;5.72;59.79;100965.41;4919551;29;20137;-67
2022/12/11 09:40:08;;;;;;;23.25;16.00;;;;;;;5.73;59.80;100970.69;4926443;29;20044;-69
2022/12/11 09:43:00;;;;;;;26.15;16.00;;;;;;;5.73;59.87;100970.69;4916864;29;20051;-70
2022/12/11 09:45:26;;;;;;;25.63;15.27;;;;;;;5.75;59.74;100965.28;4916925;29;20143;-70
2022/12/11 09:47:55;;;;;;;26.92;15.80;;;;;;;5.72;59.79;100970.75;4920720;29;20040;-70
2022/12/11 09:50:28;;;;;;;23.13;15.60;;;;;;;5.68;59.80;100963.84;4935174;29;20410;-71
2022/12/11 09:53:01;;;;;;;27.08;15.93;;;;;;;5.69;59.79;100966.44;4935947;29;20546;-70
2022/12/11 09:55:50;;;;;;;26.10;15.65;;;;;;;5.72;59.82;100970.75;4931639;29;20036;-70
2022/12/11 09:58:47;;;;;;;28.48;17.27;;;;;;;5.74;59.82;100967.06;4917301;29;20048;-70
2022/12/11 10:01:17;;;;;;;26.42;15.73;;;;;;;5.79;59.78;100965.97;4923574;29;20052;-68
2022/12/11 10:03:48;;;;;;;25.60;15.77;;;;;;;5.79;59.82;100958.84;4932110;29;20182;-70
2022/12/11 10:06:32;;;;;;;25.88;16.45;;;;;;;5.80;59.86;100960.56;4916640;29;20103;-70
2022/12/11 10:09:01;;;;;;;25.52;16.25;;;;;;;5.80;59.76;100962.38;4922148;29;20096;-67
2022/12/11 10:11:33;;;;;;;25.23;15.75;;;;;;;5.80;59.77;100968.56;4918799;29;20084;-67
2022/12/11 10:14:24;;;;;;;25.55;15.70;;;;;;;5.80;59.74;100965.91;4916766;29;20506;-68
2022/12/11 10:16:56;;;;;;;25.77;17.25;;;;;;;5.83;59.60;100962.22;4932667;29;20451;-67
2022/12/11 10:19:31;;;;;;;26.67;16.17;;;;;;;5.82;59.69;100964.03;4921197;29;20052;-67
2022/12/11 10:21:59;;;;;;;31.77;17.30;;;;;;;5.83;59.67;100959.56;4916920;29;20076;-67
2022/12/11 10:24:36;;;;;;;24.00;15.18;;;;;;;5.83;59.85;100964.91;4916992;29;20308;-68
2022/12/11 10:27:30;;;;;;;24.45;15.73;;;;;;;5.84;59.78;100958.63;4933241;29;20522;-67
2022/12/11 10:30:20;;;;;;;26.13;15.38;;;;;;;5.82;59.58;100963.16;4916495;29;20558;-67
2022/12/11 10:33:22;;;;;;;27.15;15.48;;;;;;;5.75;59.64;100958.16;4916392;29;20434;-68
2022/12/11 10:35:52;;;;;;;25.52;16.08;;;;;;;5.75;59.68;100955.47;4916666;29;20052;-67
2022/12/11 10:38:29;;;;;;;23.88;16.35;;;;;;;5.73;59.59;100952.03;4915527;29;20048;-67
2022/12/11 10:41:23;;;;;;;25.20;16.40;;;;;;;5.77;59.78;100959.88;4905118;29;20040;-67
2022/12/11 10:43:52;;;;;;;26.15;16.42;;;;;;;5.82;59.74;100961.38;4916281;29;20475;-67
2022/12/11 10:46:22;;;;;;;25.77;16.55;;;;;;;5.84;59.77;100951.50;4915703;29;20108;-67
2022/12/11 10:48:59;;;;;;;24.52;15.27;;;;;;;5.82;59.68;100955.16;4899544;29;20496;-67
2022/12/11 10:51:32;;;;;;;26.05;15.90;;;;;;;5.84;59.81;100950.63;4915750;29;20495;-67
2022/12/11 10:54:28;;;;;;;24.33;15.45;;;;;;;5.83;59.73;100951.56;4918151;29;20070;-68
2022/12/11 10:56:55;;;;;;;24.40;16.17;;;;;;;5.88;59.75;100941.53;4919382;29;20135;-67
2022/12/11 10:59:48;;;;;;;24.67;16.02;;;;;;;5.91;59.78;100938.75;4936637;29;20048;-67
2022/12/11 11:02:31;;;;;;;26.13;15.45;;;;;;;5.94;59.88;100941.25;4938738;29;20052;-67
2022/12/11 11:04:59;;;;;;;27.30;16.38;;;;;;;5.96;59.79;100940.28;4901247;29;20072;-67
2022/12/11 11:07:28;;;;;;;24.55;16.20;;;;;;;5.97;59.62;100936.69;4917411;29;20064;-66
2022/12/11 11:10:13;;;;;;;27.23;17.25;;;;;;;5.95;59.59;100930.56;4918789;29;20036;-70
2022/12/11 11:12:46;;;;;;;26.43;16.17;;;;;;;5.96;59.68;100926.94;4902820;29;20056;-71
2022/12/11 11:15:16;;;;;;;25.35;15.93;;;;;;;5.97;59.59;100931.34;4919258;29;20312;-69
2022/12/11 11:17:52;;;;;;;26.02;16.15;;;;;;;5.99;59.69;100928.59;4918624;29;20049;-70
2022/12/11 11:20:30;;;;;;;25.77;16.48;;;;;;;5.98;59.54;100927.75;4901118;29;20492;-70
2022/12/11 11:23:00;;;;;;;28.33;16.42;;;;;;;6.00;59.57;100930.31;4900655;29;20045;-70
2022/12/11 11:25:30;;;;;;;28.10;16.75;;;;;;;6.00;59.57;100920.53;4900834;29;20045;-70
2022/12/11 11:28:00;;;;;;;27.17;16.83;;;;;;;6.01;59.43;100926.72;4916273;29;20057;-69
2022/12/11 11:30:33;;;;;;;22.55;16.08;;;;;;;6.00;59.44;100927.66;4938759;29;20490;-70
2022/12/11 11:33:19;;;;;;;23.58;16.00;;;;;;;5.99;59.58;100920.59;4938197;29;20047;-71
2022/12/11 11:36:04;;;;;;;26.23;16.95;;;;;;;6.00;59.46;100925.00;4919963;29;20163;-70
2022/12/11 11:38:37;;;;;;;23.10;15.37;;;;;;;5.97;59.41;100922.47;4901783;29;20424;-70
2022/12/11 11:41:22;;;;;;;26.65;16.70;;;;;;;5.94;59.45;100915.47;4930090;29;20439;-70